Grete Maersk — OYCY2 — position and weather

sailwx.info

Track history (hours):
 
Tides and Currents Weather Stations Pressure Air Temp Water Temp Dewpoint Dewpoint Depression Visibility Wind Speed Wind Dir Waves Ship Positions

Grete Maersk

Last reported at 2015-May-30 09:19 UTC. Time now 2015-May-30 12:36 UTC.
Position N 36°39' E 000°13'.

MMSI: 218824136.

Date/timePositionNaut miles runAvg speedWind from/ knotsBaromVisibWave heightAir tempDewpointWater temp
2015-May-30 09:19N 36°39' E 000°13'1513.5
2015-May-30 08:12N 36°37' W 000°05'1112.8
2015-May-30 07:21N 36°35' W 000°19'1013.0
2015-May-30 06:33N 36°34' W 000°31'1312.8
2015-May-30 05:33N 36°32' W 000°47'1512.6
2015-May-30 04:22N 36°29' W 001°05'1113.0
2015-May-30 03:33N 36°27' W 001°18'5212.9
2015-May-29 23:31N 36°20' W 002°23'1313.2
2015-May-29 22:33N 36°18' W 002°38'12612.6
2015-May-29 12:33N 35°59' W 005°13'1413.5
2015-May-29 11:33N 35°56' W 005°29'147 4.5
2015-May-28 02:32N 36°25' W 008°28'2323.1
2015-May-28 01:33N 36°30' W 008°55'2222.4
2015-May-28 00:34N 36°38' W 009°21'2222.5
2015-May-27 23:34N 36°58' W 009°35'2323.2
2015-May-27 22:33N 37°20' W 009°43'2323.2
2015-May-27 21:33N 37°43' W 009°49'2323.4
2015-May-27 20:34N 38°06' W 009°55'2423.5
2015-May-27 19:34N 38°29' W 010°02'2323.2
2015-May-27 18:34N 38°52' W 010°06'2424.0
2015-May-27 17:33N 39°16' W 010°04'2424.3
2015-May-27 16:33N 39°40' W 010°03'2424.3
2015-May-27 15:33N 40°04' W 010°05'2424.4
2015-May-27 14:33N 40°29' W 010°04'5224.4
2015-May-27 12:25N 41°21' W 010°05'59322.5
2015-May-26 10:05N 49°56' W 003°05'1223.2
2015-May-26 09:33N 49°59' W 002°47'5624.4
2015-May-26 07:16N 50°15' W 001°23'2324.6
2015-May-26 06:19N 50°22' W 000°48'1823.7
2015-May-26 05:33N 50°26' W 000°21'2622.8
2015-May-26 04:25N 50°33' E 000°19'1921.8
2015-May-26 03:34N 50°41' E 000°45'2222.2
2015-May-26 02:34N 50°55' E 001°12'2323.4
2015-May-26 01:34N 51°11' E 001°39'2424.0
2015-May-26 00:34N 51°35' E 001°47'1818.0
2015-May-25 23:33N 51°51' E 001°36'1110.7
2015-May-25 22:34N 51°55' E 001°20'2 1.5
2015-May-25 21:33N 51°57' E 001°19'0 0.0
2015-May-25 20:33N 51°57' E 001°19'0 0.0
2015-May-25 19:33N 51°57' E 001°19'0 0.0
2015-May-25 18:33N 51°57' E 001°19'0 0.0
2015-May-25 17:33N 51°57' E 001°19'0 0.0
2015-May-25 16:33N 51°57' E 001°19'0 0.0
2015-May-25 15:33N 51°57' E 001°19'0 0.0
2015-May-25 14:33N 51°57' E 001°19'0 0.0
2015-May-25 13:33N 51°57' E 001°19'0 0.0
2015-May-25 12:33N 51°57' E 001°19'0 0.0
2015-May-25 11:33N 51°57' E 001°19'0 0.0
2015-May-25 10:33N 51°57' E 001°19'0 0.0
2015-May-25 09:33N 51°57' E 001°19'0 0.0
2015-May-25 08:33N 51°57' E 001°19'0 0.0
2015-May-25 07:33N 51°57' E 001°19'0 0.0
2015-May-25 06:33N 51°57' E 001°19'0 0.0
2015-May-25 05:33N 51°57' E 001°19'0 0.0
2015-May-25 04:33N 51°57' E 001°19'0 0.0
2015-May-25 03:33N 51°57' E 001°19'2 1.5
2015-May-25 02:33N 51°55' E 001°20'1111.0
2015-May-25 01:33N 51°51' E 001°36'6 5.9
2015-May-25 00:33N 51°51' E 001°46'5 5.0
2015-May-24 23:34N 51°46' E 001°48'8 7.7
2015-May-24 22:33N 51°38' E 001°50'8 8.4
2015-May-24 21:34N 51°30' E 001°54'1010.1
2015-May-24 20:33N 51°24' E 002°06'9 8.9
2015-May-24 19:33N 51°21' E 002°19'9 8.8
2015-May-24 18:33N 51°23' E 002°33'8 8.3
2015-May-24 17:33N 51°24' E 002°46'1615.6
2015-May-24 16:33N 51°24' E 003°11'1514.7
2015-May-24 15:33N 51°26' E 003°35'9 9.4
2015-May-24 14:33N 51°21' E 003°48'9 9.3
2015-May-24 13:34N 51°24' E 004°02'10 9.5
2015-May-24 12:33N 51°20' E 004°16'2 2.1
2015-May-24 11:29N 51°18' E 004°16'0 0.0
2015-May-24 10:26N 51°18' E 004°16'0 0.0
2015-May-24 09:32N 51°18' E 004°16'0 0.0
2015-May-24 08:29N 51°18' E 004°16'0 0.0
2015-May-24 07:32N 51°18' E 004°16'0 0.0
2015-May-24 06:32N 51°18' E 004°16'0 0.0
2015-May-24 05:32N 51°18' E 004°16'0 0.0
2015-May-24 04:32N 51°18' E 004°16'0 0.0
2015-May-24 03:32N 51°18' E 004°16'0 0.0
2015-May-24 02:32N 51°18' E 004°16'0 0.0
2015-May-24 01:32N 51°18' E 004°16'0 0.0
2015-May-24 00:32N 51°18' E 004°16'0 0.0
2015-May-23 23:32N 51°18' E 004°16'0 0.0
2015-May-23 22:32N 51°18' E 004°16'0 0.0
2015-May-23 21:32N 51°18' E 004°16'0 0.0
2015-May-23 20:32N 51°18' E 004°16'0 0.0
2015-May-23 19:32N 51°18' E 004°16'0 0.0
2015-May-23 18:32N 51°18' E 004°16'0 0.0
2015-May-23 17:29N 51°18' E 004°16'0 0.0
2015-May-23 16:32N 51°18' E 004°16'0 0.0
2015-May-23 15:32N 51°18' E 004°16'0 0.0
2015-May-23 14:32N 51°18' E 004°16'0 0.0
2015-May-23 13:29N 51°18' E 004°16'0 0.0
2015-May-23 12:32N 51°18' E 004°16'0 0.0
2015-May-23 11:32N 51°18' E 004°16'0 0.0
2015-May-23 10:32N 51°18' E 004°16'0 0.0
2015-May-23 09:32N 51°18' E 004°16'0 0.0
2015-May-23 08:32N 51°18' E 004°16'0 0.0
2015-May-23 07:29N 51°18' E 004°16'0 0.0
2015-May-23 06:26N 51°18' E 004°16'0 0.0
2015-May-23 05:32N 51°18' E 004°16'0 0.0
2015-May-23 04:29N 51°18' E 004°16'0 0.0
2015-May-23 03:32N 51°18' E 004°16'0 0.0
2015-May-23 02:29N 51°18' E 004°16'0 0.0
2015-May-23 01:32N 51°18' E 004°16'0 0.0
2015-May-23 00:32N 51°18' E 004°16'0 0.0
2015-May-22 23:29N 51°18' E 004°16'0 0.0
2015-May-22 22:32N 51°18' E 004°16'0 0.0
2015-May-22 21:32N 51°18' E 004°16'0 0.0
2015-May-22 20:32N 51°18' E 004°16'0 0.0
2015-May-22 19:32N 51°18' E 004°16'0 0.0
2015-May-22 18:32N 51°18' E 004°16'0 0.0
2015-May-22 17:32N 51°18' E 004°16'0 0.0
2015-May-22 16:32N 51°18' E 004°16'0 0.0
2015-May-22 15:32N 51°18' E 004°16'0 0.0
2015-May-22 14:32N 51°18' E 004°16'0 0.0
2015-May-22 13:32N 51°18' E 004°16'1 1.3
2015-May-22 12:33N 51°19' E 004°16'9 9.1
2015-May-22 11:33N 51°23' E 004°03'8 8.1
2015-May-22 10:33N 51°21' E 003°50'1110.7
2015-May-22 09:33N 51°26' E 003°35'1010.5
2015-May-22 08:33N 51°24' E 003°18'1615.8
2015-May-22 07:33N 51°22' E 002°53'1010.1
2015-May-22 06:33N 51°22' E 002°37'2 2.1
2015-May-22 05:31N 51°25' E 002°37'0 0.0
2015-May-22 04:31N 51°25' E 002°37'0 0.0
2015-May-22 03:22N 51°25' E 002°37'0 0.0
2015-May-22 02:28N 51°25' E 002°37'0 0.0
2015-May-22 01:25N 51°25' E 002°37'0 0.3
2015-May-22 00:31N 51°24' E 002°37'0 0.2
2015-May-21 23:31N 51°24' E 002°37'0 0.0
2015-May-21 22:28N 51°24' E 002°37'0 0.3
2015-May-21 21:31N 51°25' E 002°37'0 0.1
2015-May-21 20:31N 51°25' E 002°37'0 0.0
2015-May-21 19:31N 51°25' E 002°37'0 0.0
2015-May-21 18:31N 51°25' E 002°37'0 0.0
2015-May-21 17:31N 51°25' E 002°37'0 0.0
2015-May-21 16:31N 51°25' E 002°37'4 3.7
2015-May-21 15:33N 51°22' E 002°33'1515.0
2015-May-21 14:33N 51°16' E 002°12'1515.3
2015-May-21 13:33N 51°08' E 001°51'1515.3
2015-May-21 12:33N 50°58' E 001°33'1413.8
2015-May-21 11:33N 50°45' E 001°24'1313.0
2015-May-21 10:32N 50°35' E 001°11'3213.1
2015-May-21 08:05N 50°23' E 000°24'1911.6
2015-May-21 06:25N 50°15' W 000°04'1211.6
2015-May-21 05:21N 50°03' W 000°08'1011.7
2015-May-21 04:28N 49°53' W 000°09'1111.9
2015-May-21 03:33N 49°42' W 000°11'9 9.0
2015-May-21 02:33N 49°33' W 000°11'1211.8
2015-May-21 01:34N 49°29' E 000°06'2 2.2
2015-May-21 00:32N 49°28' E 000°09'0 0.0
2015-May-20 23:32N 49°28' E 000°09'0 0.0
2015-May-20 22:32N 49°28' E 000°09'0 0.0
2015-May-20 21:32N 49°28' E 000°09'0 0.0
2015-May-20 20:32N 49°28' E 000°09'0 0.0
2015-May-20 19:32N 49°28' E 000°09'0 0.0
2015-May-20 18:32N 49°28' E 000°09'0 0.0
2015-May-20 17:32N 49°28' E 000°09'0 0.0
2015-May-20 16:32N 49°28' E 000°09'0 0.0
2015-May-20 15:32N 49°28' E 000°09'0 0.0
2015-May-20 14:32N 49°28' E 000°09'0 0.0
2015-May-20 13:32N 49°28' E 000°09'0 0.0
2015-May-20 12:32N 49°28' E 000°09'0 0.0
2015-May-20 11:32N 49°28' E 000°09'0 0.1
2015-May-20 10:33N 49°28' E 000°09'8 8.1
2015-May-20 09:33N 49°31' W 000°03'  
Track history (hours):
 
Tides and Currents Weather Stations Pressure Air Temp Water Temp Dewpoint Dewpoint Depression Visibility Wind Speed Wind Dir Waves Ship Positions

Grete Maersk

Last reported at 2015-May-30 09:19 UTC. Time now 2015-May-30 12:36 UTC.
Position N 36°39' E 000°13'.

MMSI: 218824136.

Date/timePositionNaut miles runAvg speedWind from/ knotsBaromVisibWave heightAir tempDewpointWater temp
2015-May-30 09:19N 36°39' E 000°13'1513.5
2015-May-30 08:12N 36°37' W 000°05'1112.8
2015-May-30 07:21N 36°35' W 000°19'1013.0
2015-May-30 06:33N 36°34' W 000°31'1312.8
2015-May-30 05:33N 36°32' W 000°47'1512.6
2015-May-30 04:22N 36°29' W 001°05'1113.0
2015-May-30 03:33N 36°27' W 001°18'5212.9
2015-May-29 23:31N 36°20' W 002°23'1313.2
2015-May-29 22:33N 36°18' W 002°38'12612.6
2015-May-29 12:33N 35°59' W 005°13'1413.5
2015-May-29 11:33N 35°56' W 005°29'147 4.5
2015-May-28 02:32N 36°25' W 008°28'2323.1
2015-May-28 01:33N 36°30' W 008°55'2222.4
2015-May-28 00:34N 36°38' W 009°21'2222.5
2015-May-27 23:34N 36°58' W 009°35'2323.2
2015-May-27 22:33N 37°20' W 009°43'2323.2
2015-May-27 21:33N 37°43' W 009°49'2323.4
2015-May-27 20:34N 38°06' W 009°55'2423.5
2015-May-27 19:34N 38°29' W 010°02'2323.2
2015-May-27 18:34N 38°52' W 010°06'2424.0
2015-May-27 17:33N 39°16' W 010°04'2424.3
2015-May-27 16:33N 39°40' W 010°03'2424.3
2015-May-27 15:33N 40°04' W 010°05'2424.4
2015-May-27 14:33N 40°29' W 010°04'5224.4
2015-May-27 12:25N 41°21' W 010°05'59322.5
2015-May-26 10:05N 49°56' W 003°05'1223.2
2015-May-26 09:33N 49°59' W 002°47'5624.4
2015-May-26 07:16N 50°15' W 001°23'2324.6
2015-May-26 06:19N 50°22' W 000°48'1823.7
2015-May-26 05:33N 50°26' W 000°21'2622.8
2015-May-26 04:25N 50°33' E 000°19'1921.8
2015-May-26 03:34N 50°41' E 000°45'2222.2
2015-May-26 02:34N 50°55' E 001°12'2323.4
2015-May-26 01:34N 51°11' E 001°39'2424.0
2015-May-26 00:34N 51°35' E 001°47'1818.0
2015-May-25 23:33N 51°51' E 001°36'1110.7
2015-May-25 22:34N 51°55' E 001°20'2 1.5
2015-May-25 21:33N 51°57' E 001°19'0 0.0
2015-May-25 20:33N 51°57' E 001°19'0 0.0
2015-May-25 19:33N 51°57' E 001°19'0 0.0
2015-May-25 18:33N 51°57' E 001°19'0 0.0
2015-May-25 17:33N 51°57' E 001°19'0 0.0
2015-May-25 16:33N 51°57' E 001°19'0 0.0
2015-May-25 15:33N 51°57' E 001°19'0 0.0
2015-May-25 14:33N 51°57' E 001°19'0 0.0
2015-May-25 13:33N 51°57' E 001°19'0 0.0
2015-May-25 12:33N 51°57' E 001°19'0 0.0
2015-May-25 11:33N 51°57' E 001°19'0 0.0
2015-May-25 10:33N 51°57' E 001°19'0 0.0
2015-May-25 09:33N 51°57' E 001°19'0 0.0
2015-May-25 08:33N 51°57' E 001°19'0 0.0
2015-May-25 07:33N 51°57' E 001°19'0 0.0
2015-May-25 06:33N 51°57' E 001°19'0 0.0
2015-May-25 05:33N 51°57' E 001°19'0 0.0
2015-May-25 04:33N 51°57' E 001°19'0 0.0
2015-May-25 03:33N 51°57' E 001°19'2 1.5
2015-May-25 02:33N 51°55' E 001°20'1111.0
2015-May-25 01:33N 51°51' E 001°36'6 5.9
2015-May-25 00:33N 51°51' E 001°46'5 5.0
2015-May-24 23:34N 51°46' E 001°48'8 7.7
2015-May-24 22:33N 51°38' E 001°50'8 8.4
2015-May-24 21:34N 51°30' E 001°54'1010.1
2015-May-24 20:33N 51°24' E 002°06'9 8.9
2015-May-24 19:33N 51°21' E 002°19'9 8.8
2015-May-24 18:33N 51°23' E 002°33'8 8.3
2015-May-24 17:33N 51°24' E 002°46'1615.6
2015-May-24 16:33N 51°24' E 003°11'1514.7
2015-May-24 15:33N 51°26' E 003°35'9 9.4
2015-May-24 14:33N 51°21' E 003°48'9 9.3
2015-May-24 13:34N 51°24' E 004°02'10 9.5
2015-May-24 12:33N 51°20' E 004°16'2 2.1
2015-May-24 11:29N 51°18' E 004°16'0 0.0
2015-May-24 10:26N 51°18' E 004°16'0 0.0
2015-May-24 09:32N 51°18' E 004°16'0 0.0
2015-May-24 08:29N 51°18' E 004°16'0 0.0
2015-May-24 07:32N 51°18' E 004°16'0 0.0
2015-May-24 06:32N 51°18' E 004°16'0 0.0
2015-May-24 05:32N 51°18' E 004°16'0 0.0
2015-May-24 04:32N 51°18' E 004°16'0 0.0
2015-May-24 03:32N 51°18' E 004°16'0 0.0
2015-May-24 02:32N 51°18' E 004°16'0 0.0
2015-May-24 01:32N 51°18' E 004°16'0 0.0
2015-May-24 00:32N 51°18' E 004°16'0 0.0
2015-May-23 23:32N 51°18' E 004°16'0 0.0
2015-May-23 22:32N 51°18' E 004°16'0 0.0
2015-May-23 21:32N 51°18' E 004°16'0 0.0
2015-May-23 20:32N 51°18' E 004°16'0 0.0
2015-May-23 19:32N 51°18' E 004°16'0 0.0
2015-May-23 18:32N 51°18' E 004°16'0 0.0
2015-May-23 17:29N 51°18' E 004°16'0 0.0
2015-May-23 16:32N 51°18' E 004°16'0 0.0
2015-May-23 15:32N 51°18' E 004°16'0 0.0
2015-May-23 14:32N 51°18' E 004°16'0 0.0
2015-May-23 13:29N 51°18' E 004°16'0 0.0
2015-May-23 12:32N 51°18' E 004°16'0 0.0
2015-May-23 11:32N 51°18' E 004°16'0 0.0
2015-May-23 10:32N 51°18' E 004°16'0 0.0
2015-May-23 09:32N 51°18' E 004°16'0 0.0
2015-May-23 08:32N 51°18' E 004°16'0 0.0
2015-May-23 07:29N 51°18' E 004°16'0 0.0
2015-May-23 06:26N 51°18' E 004°16'0 0.0
2015-May-23 05:32N 51°18' E 004°16'0 0.0
2015-May-23 04:29N 51°18' E 004°16'0 0.0
2015-May-23 03:32N 51°18' E 004°16'0 0.0
2015-May-23 02:29N 51°18' E 004°16'0 0.0
2015-May-23 01:32N 51°18' E 004°16'0 0.0
2015-May-23 00:32N 51°18' E 004°16'0 0.0
2015-May-22 23:29N 51°18' E 004°16'0 0.0
2015-May-22 22:32N 51°18' E 004°16'0 0.0
2015-May-22 21:32N 51°18' E 004°16'0 0.0
2015-May-22 20:32N 51°18' E 004°16'0 0.0
2015-May-22 19:32N 51°18' E 004°16'0 0.0
2015-May-22 18:32N 51°18' E 004°16'0 0.0
2015-May-22 17:32N 51°18' E 004°16'0 0.0
2015-May-22 16:32N 51°18' E 004°16'0 0.0
2015-May-22 15:32N 51°18' E 004°16'0 0.0
2015-May-22 14:32N 51°18' E 004°16'0 0.0
2015-May-22 13:32N 51°18' E 004°16'1 1.3
2015-May-22 12:33N 51°19' E 004°16'9 9.1
2015-May-22 11:33N 51°23' E 004°03'8 8.1
2015-May-22 10:33N 51°21' E 003°50'1110.7
2015-May-22 09:33N 51°26' E 003°35'1010.5
2015-May-22 08:33N 51°24' E 003°18'1615.8
2015-May-22 07:33N 51°22' E 002°53'1010.1
2015-May-22 06:33N 51°22' E 002°37'2 2.1
2015-May-22 05:31N 51°25' E 002°37'0 0.0
2015-May-22 04:31N 51°25' E 002°37'0 0.0
2015-May-22 03:22N 51°25' E 002°37'0 0.0
2015-May-22 02:28N 51°25' E 002°37'0 0.0
2015-May-22 01:25N 51°25' E 002°37'0 0.3
2015-May-22 00:31N 51°24' E 002°37'0 0.2
2015-May-21 23:31N 51°24' E 002°37'0 0.0
2015-May-21 22:28N 51°24' E 002°37'0 0.3
2015-May-21 21:31N 51°25' E 002°37'0 0.1
2015-May-21 20:31N 51°25' E 002°37'0 0.0
2015-May-21 19:31N 51°25' E 002°37'0 0.0
2015-May-21 18:31N 51°25' E 002°37'0 0.0
2015-May-21 17:31N 51°25' E 002°37'0 0.0
2015-May-21 16:31N 51°25' E 002°37'4 3.7
2015-May-21 15:33N 51°22' E 002°33'1515.0
2015-May-21 14:33N 51°16' E 002°12'1515.3
2015-May-21 13:33N 51°08' E 001°51'1515.3
2015-May-21 12:33N 50°58' E 001°33'1413.8
2015-May-21 11:33N 50°45' E 001°24'1313.0
2015-May-21 10:32N 50°35' E 001°11'3213.1
2015-May-21 08:05N 50°23' E 000°24'1911.6
2015-May-21 06:25N 50°15' W 000°04'1211.6
2015-May-21 05:21N 50°03' W 000°08'1011.7
2015-May-21 04:28N 49°53' W 000°09'1111.9
2015-May-21 03:33N 49°42' W 000°11'9 9.0
2015-May-21 02:33N 49°33' W 000°11'1211.8
2015-May-21 01:34N 49°29' E 000°06'2 2.2
2015-May-21 00:32N 49°28' E 000°09'0 0.0
2015-May-20 23:32N 49°28' E 000°09'0 0.0
2015-May-20 22:32N 49°28' E 000°09'0 0.0
2015-May-20 21:32N 49°28' E 000°09'0 0.0
2015-May-20 20:32N 49°28' E 000°09'0 0.0
2015-May-20 19:32N 49°28' E 000°09'0 0.0
2015-May-20 18:32N 49°28' E 000°09'0 0.0
2015-May-20 17:32N 49°28' E 000°09'0 0.0
2015-May-20 16:32N 49°28' E 000°09'0 0.0
2015-May-20 15:32N 49°28' E 000°09'0 0.0
2015-May-20 14:32N 49°28' E 000°09'0 0.0
2015-May-20 13:32N 49°28' E 000°09'0 0.0
2015-May-20 12:32N 49°28' E 000°09'0 0.0
2015-May-20 11:32N 49°28' E 000°09'0 0.1
2015-May-20 10:33N 49°28' E 000°09'8 8.1
2015-May-20 09:33N 49°31' W 000°03'  

Dump ship's entire track history